createdAt,value
2023-04-22T02:41:22.308Z,14.80
2023-04-22T02:43:48.994Z,14.75
2023-04-22T02:46:19.053Z,15.48
2023-04-22T02:48:45.701Z,15.50
2023-04-22T02:51:12.463Z,15.90
2023-04-22T02:53:39.106Z,14.23
2023-04-22T02:56:05.832Z,15.57
2023-04-22T02:58:32.338Z,16.63
2023-04-22T03:00:59.011Z,16.10
2023-04-22T03:03:26.017Z,15.55
2023-04-22T03:05:52.720Z,15.05
2023-04-22T03:08:19.776Z,15.75
2023-04-22T03:10:46.429Z,15.18
2023-04-22T03:13:13.717Z,14.30
2023-04-22T03:15:41.125Z,14.95
2023-04-22T03:18:07.971Z,13.68
2023-04-22T03:20:35.193Z,15.15
2023-04-22T03:23:02.206Z,13.60
2023-04-22T03:25:28.750Z,13.38
2023-04-22T03:27:55.327Z,13.73
2023-04-22T03:30:21.981Z,12.10
2023-04-22T03:32:48.618Z,12.60
2023-04-22T03:35:15.228Z,10.70
2023-04-22T03:37:41.720Z,12.18
2023-04-22T03:40:08.902Z,11.68
2023-04-22T03:42:35.417Z,10.73
2023-04-22T03:45:01.942Z,10.73
2023-04-22T03:47:28.486Z,11.35
2023-04-22T03:49:55.042Z,11.80
2023-04-22T03:52:21.554Z,8.13
2023-04-22T03:54:48.039Z,11.07
2023-04-22T03:57:14.629Z,9.70
2023-04-22T03:59:41.522Z,10.15
2023-04-22T04:02:08.956Z,10.40
2023-04-22T04:04:35.832Z,11.05
2023-04-22T04:07:02.642Z,10.75
2023-04-22T04:09:29.213Z,10.35
2023-04-22T04:11:56.792Z,10.23
2023-04-22T04:14:23.278Z,10.30
2023-04-22T04:16:49.811Z,8.55
2023-04-22T04:19:16.299Z,10.00
2023-04-22T04:21:43.561Z,10.18
2023-04-22T04:24:10.040Z,9.65
2023-04-22T04:26:37.901Z,10.98
2023-04-22T04:29:05.778Z,8.32
2023-04-22T04:31:32.357Z,9.05
2023-04-22T04:33:59.115Z,9.02
2023-04-22T04:36:29.419Z,9.32
2023-04-22T04:38:56.503Z,8.77
2023-04-22T04:41:23.478Z,9.35
2023-04-22T04:43:50.511Z,9.10
2023-04-22T04:46:17.066Z,8.82
2023-04-22T04:48:46.066Z,9.27
2023-04-22T04:51:13.091Z,8.95
2023-04-22T04:53:40.344Z,9.20
2023-04-22T04:56:06.828Z,9.57
2023-04-22T04:58:33.356Z,8.23
2023-04-22T05:00:59.917Z,8.50
2023-04-22T05:03:26.700Z,7.60
2023-04-22T05:05:53.473Z,6.68
2023-04-22T05:08:20.005Z,8.88
2023-04-22T05:10:46.509Z,9.07
2023-04-22T05:13:13.091Z,9.30
2023-04-22T05:15:39.723Z,9.00
2023-04-22T05:18:06.814Z,7.68
2023-04-22T05:20:35.814Z,8.65
2023-04-22T05:23:02.702Z,9.30
2023-04-22T05:25:29.287Z,8.80
2023-04-22T05:27:55.781Z,7.95
2023-04-22T05:30:22.328Z,8.05
2023-04-22T05:32:48.862Z,9.27
2023-04-22T05:35:15.441Z,7.65
2023-04-22T05:37:41.972Z,8.32
2023-04-22T05:40:08.822Z,7.28
2023-04-22T05:42:35.376Z,7.47
2023-04-22T05:45:01.989Z,8.20
2023-04-22T05:47:28.584Z,7.57
2023-04-22T05:49:55.117Z,7.10
2023-04-22T05:52:21.640Z,8.27
2023-04-22T05:54:48.122Z,9.07
2023-04-22T05:57:14.668Z,8.52
2023-04-22T05:59:41.323Z,9.20
2023-04-22T06:02:08.163Z,8.75
2023-04-22T06:04:37.289Z,8.40
2023-04-22T06:07:04.694Z,8.00
2023-04-22T06:09:31.232Z,8.73
2023-04-22T06:11:58.243Z,8.00
2023-04-22T06:14:24.809Z,8.75
2023-04-22T06:16:52.821Z,8.07
2023-04-22T06:19:19.527Z,8.75
2023-04-22T06:21:46.210Z,9.25
2023-04-22T06:24:12.686Z,8.55
2023-04-22T06:26:39.204Z,9.93
2023-04-22T06:29:05.941Z,8.85
2023-04-22T06:31:32.649Z,9.13
2023-04-22T06:33:59.726Z,9.38
2023-04-22T06:36:30.237Z,9.43
2023-04-22T06:38:57.237Z,9.40
2023-04-22T06:41:23.747Z,9.73
2023-04-22T06:43:50.289Z,9.23
2023-04-22T06:46:17.459Z,10.20
2023-04-22T06:48:44.009Z,8.40
2023-04-22T06:51:10.669Z,10.25
2023-04-22T06:53:37.188Z,10.57
2023-04-22T06:56:03.990Z,11.23
2023-04-22T06:58:30.731Z,10.32
2023-04-22T07:00:57.237Z,8.88
2023-04-22T07:03:23.991Z,9.48
2023-04-22T07:05:50.850Z,9.45
2023-04-22T07:08:17.528Z,9.65
2023-04-22T07:10:44.082Z,9.52
2023-04-22T07:13:10.571Z,10.32
2023-04-22T07:15:37.106Z,8.57
2023-04-22T07:18:03.725Z,9.18
2023-04-22T07:20:30.276Z,6.72
2023-04-22T07:22:56.809Z,7.20
2023-04-22T07:25:23.680Z,6.60
2023-04-22T07:27:50.214Z,6.97
2023-04-22T07:30:17.077Z,6.63
2023-04-22T07:32:43.636Z,5.43
2023-04-22T07:35:10.192Z,5.90
2023-04-22T07:37:36.714Z,6.30
2023-04-22T07:40:03.431Z,5.95
2023-04-22T07:42:29.953Z,5.57
2023-04-22T07:44:56.453Z,6.15
2023-04-22T07:47:23.098Z,6.13
2023-04-22T07:49:49.699Z,6.00
2023-04-22T07:52:16.178Z,5.10
2023-04-22T07:54:42.676Z,6.30
2023-04-22T07:57:09.219Z,4.85
2023-04-22T07:59:35.713Z,6.53
2023-04-22T08:02:02.255Z,6.15
2023-04-22T08:04:29.100Z,6.13
2023-04-22T08:06:56.264Z,5.35
2023-04-22T08:09:22.959Z,5.88
2023-04-22T08:11:49.507Z,5.20
2023-04-22T08:14:16.101Z,5.00
2023-04-22T08:16:42.755Z,5.95
2023-04-22T08:19:09.320Z,6.40
2023-04-22T08:21:37.370Z,6.30
2023-04-22T08:24:04.195Z,5.63
2023-04-22T08:26:30.794Z,5.20
2023-04-22T08:28:57.329Z,5.45
2023-04-22T08:31:23.935Z,6.60
2023-04-22T08:33:51.151Z,5.82
2023-04-22T08:36:17.768Z,7.13
2023-04-22T08:38:44.349Z,7.22
2023-04-22T08:41:10.956Z,6.85
2023-04-22T08:43:37.526Z,6.35
2023-04-22T08:46:04.101Z,5.10
2023-04-22T08:48:32.202Z,4.63
2023-04-22T08:50:58.807Z,5.88
2023-04-22T08:53:25.515Z,4.90
2023-04-22T08:55:52.043Z,4.93
2023-04-22T08:58:18.590Z,5.65
2023-04-22T09:00:45.363Z,4.85
2023-04-22T09:03:12.265Z,4.43
2023-04-22T09:05:40.167Z,5.30
2023-04-22T09:08:08.018Z,5.47
2023-04-22T09:10:37.223Z,6.03
2023-04-22T09:13:04.649Z,4.75
2023-04-22T09:15:31.152Z,5.35
2023-04-22T09:17:58.696Z,6.25
2023-04-22T09:20:29.110Z,5.72
2023-04-22T09:22:56.755Z,4.88
2023-04-22T09:25:24.374Z,6.47
2023-04-22T09:27:52.153Z,5.80
2023-04-22T09:30:23.145Z,5.15
2023-04-22T09:32:54.031Z,5.65
2023-04-22T09:35:33.962Z,5.13
2023-04-22T09:38:01.384Z,4.82
2023-04-22T09:40:28.379Z,4.28
2023-04-22T09:42:55.975Z,4.70
2023-04-22T09:45:41.897Z,4.72
2023-04-22T09:48:09.794Z,4.55
2023-04-22T09:50:37.312Z,4.63
2023-04-22T09:53:05.116Z,4.45
2023-04-22T09:55:33.481Z,4.72
2023-04-22T09:58:04.994Z,4.53
2023-04-22T10:00:31.651Z,4.78
2023-04-22T10:02:58.346Z,4.72
2023-04-22T10:05:25.530Z,3.80
2023-04-22T10:07:52.252Z,3.60
2023-04-22T10:10:18.828Z,3.63
2023-04-22T10:12:47.097Z,3.85
2023-04-22T10:15:13.832Z,4.25
2023-04-22T10:17:41.328Z,3.97
2023-04-22T10:20:13.658Z,4.00
2023-04-22T10:22:42.881Z,4.22
2023-04-22T10:25:13.139Z,3.58
2023-04-22T10:27:39.906Z,3.63
2023-04-22T10:30:07.441Z,2.97
2023-04-22T10:32:34.079Z,3.22
2023-04-22T10:35:11.953Z,4.05
2023-04-22T10:37:41.345Z,3.63
2023-04-22T10:40:25.774Z,3.70
2023-04-22T10:42:52.894Z,3.70
2023-04-22T10:45:24.094Z,4.50
2023-04-22T10:47:50.724Z,4.28
2023-04-22T10:50:18.792Z,4.60
2023-04-22T10:52:52.637Z,4.85
2023-04-22T10:55:19.581Z,4.05
2023-04-22T10:57:47.395Z,4.47
2023-04-22T11:00:21.941Z,4.85
2023-04-22T11:02:52.883Z,4.25
2023-04-22T11:05:19.553Z,4.82
2023-04-22T11:07:47.160Z,4.53
2023-04-22T11:10:30.116Z,4.80
2023-04-22T11:12:57.185Z,4.57
2023-04-22T11:15:23.722Z,5.00
2023-04-22T11:17:54.288Z,4.75
2023-04-22T11:20:21.306Z,4.97
2023-04-22T11:22:48.744Z,4.88
2023-04-22T11:25:15.517Z,5.13
2023-04-22T11:27:43.781Z,5.18
2023-04-22T11:30:17.323Z,5.32
2023-04-22T11:32:45.049Z,5.80
2023-04-22T11:35:12.766Z,4.85
2023-04-22T11:37:42.293Z,5.40
2023-04-22T11:40:28.224Z,6.80
2023-04-22T11:42:56.880Z,6.10
2023-04-22T11:45:23.686Z,6.15
2023-04-22T11:47:51.291Z,6.38
2023-04-22T11:50:19.122Z,6.13
2023-04-22T11:52:45.734Z,5.65
2023-04-22T11:55:16.286Z,6.40
2023-04-22T11:57:43.575Z,6.75
2023-04-22T12:00:14.295Z,6.75
2023-04-22T12:02:41.877Z,5.75
2023-04-22T12:05:12.500Z,5.88
2023-04-22T12:07:39.971Z,5.82
2023-04-22T12:10:07.960Z,7.00
2023-04-22T12:12:36.160Z,6.75
2023-04-22T12:15:13.797Z,7.90
2023-04-22T12:17:40.967Z,6.82
2023-04-22T12:20:11.144Z,6.18
2023-04-22T12:22:38.922Z,7.03
2023-04-22T12:25:05.608Z,7.28
2023-04-22T12:27:32.168Z,7.53
2023-04-22T12:29:58.699Z,7.68
2023-04-22T12:32:26.551Z,7.20
2023-04-22T12:34:53.571Z,7.78
2023-04-22T12:37:20.253Z,8.30
2023-04-22T12:39:46.922Z,7.05
2023-04-22T12:42:13.414Z,7.25
2023-04-22T12:44:39.968Z,8.02
2023-04-22T12:47:06.537Z,8.48
2023-04-22T12:49:33.050Z,7.32
2023-04-22T12:51:59.543Z,8.55
2023-04-22T12:54:26.134Z,8.77
2023-04-22T12:56:52.711Z,7.10
2023-04-22T12:59:19.400Z,7.65
2023-04-22T13:01:45.925Z,6.95
2023-04-22T13:04:12.582Z,7.00
2023-04-22T13:06:39.288Z,7.75
2023-04-22T13:09:06.711Z,7.03
2023-04-22T13:11:33.281Z,6.50
2023-04-22T13:13:59.771Z,6.20
2023-04-22T13:16:26.329Z,7.40
2023-04-22T13:18:52.881Z,6.90
2023-04-22T13:21:19.386Z,7.75
2023-04-22T13:23:45.908Z,7.03
2023-04-22T13:26:12.444Z,6.32
2023-04-22T13:28:38.963Z,6.30
2023-04-22T13:31:05.558Z,7.00
2023-04-22T13:33:32.096Z,7.07
2023-04-22T13:35:58.829Z,7.13
2023-04-22T13:38:25.513Z,6.50
2023-04-22T13:40:52.049Z,8.57
2023-04-22T13:43:18.604Z,8.07
2023-04-22T13:45:45.502Z,7.47
2023-04-22T13:48:12.047Z,7.10
2023-04-22T13:50:42.645Z,7.80
2023-04-22T13:53:12.632Z,7.97
2023-04-22T13:55:39.657Z,8.15
2023-04-22T13:58:06.740Z,9.70
2023-04-22T14:00:36.332Z,8.88
2023-04-22T14:03:03.023Z,9.13
2023-04-22T14:05:29.635Z,8.25
2023-04-22T14:07:56.279Z,9.38
2023-04-22T14:10:22.848Z,9.23
2023-04-22T14:12:49.417Z,9.50
2023-04-22T14:15:16.035Z,8.90
2023-04-22T14:17:42.740Z,8.60
2023-04-22T14:20:11.223Z,10.45
2023-04-22T14:22:37.802Z,9.88
2023-04-22T14:25:04.491Z,10.13
2023-04-22T14:27:31.062Z,9.35
2023-04-22T14:29:57.644Z,10.40
2023-04-22T14:32:25.864Z,9.93
2023-04-22T14:34:52.600Z,9.15
2023-04-22T14:37:19.152Z,9.65
2023-04-22T14:39:45.845Z,10.88
2023-04-22T14:42:12.390Z,11.05
2023-04-22T14:44:38.927Z,11.52
2023-04-22T14:47:05.464Z,12.50
2023-04-22T14:49:33.291Z,11.75
2023-04-22T14:52:01.216Z,11.50
2023-04-22T14:54:28.080Z,10.75
2023-04-22T14:56:56.017Z,12.48
2023-04-22T14:59:22.665Z,9.95
2023-04-22T15:01:49.337Z,11.75
2023-04-22T15:04:16.706Z,10.82
2023-04-22T15:06:43.316Z,10.55
2023-04-22T15:09:09.851Z,10.88
2023-04-22T15:11:36.372Z,11.38
2023-04-22T15:14:02.871Z,11.25
2023-04-22T15:16:29.999Z,10.68
2023-04-22T15:18:56.668Z,10.95
2023-04-22T15:21:23.196Z,11.10
2023-04-22T15:23:49.704Z,11.60
2023-04-22T15:26:16.600Z,10.60
2023-04-22T15:28:43.180Z,11.45
2023-04-22T15:31:09.746Z,11.15
2023-04-22T15:33:36.703Z,11.70
2023-04-22T15:36:05.322Z,10.80
2023-04-22T15:38:31.862Z,10.93
2023-04-22T15:40:58.427Z,11.70
2023-04-22T15:43:24.932Z,11.35
2023-04-22T15:45:51.481Z,10.80
2023-04-22T15:48:17.985Z,11.40
2023-04-22T15:50:44.567Z,13.00
2023-04-22T15:53:11.268Z,12.05
2023-04-22T15:55:38.127Z,11.85
2023-04-22T15:58:05.032Z,12.23
2023-04-22T16:00:31.582Z,12.43
2023-04-22T16:02:58.614Z,11.80
2023-04-22T16:05:25.452Z,12.77
2023-04-22T16:07:55.160Z,12.10
2023-04-22T16:10:21.767Z,12.88
2023-04-22T16:12:48.259Z,12.23
2023-04-22T16:15:14.871Z,12.77
2023-04-22T16:17:41.731Z,12.38
2023-04-22T16:20:08.779Z,11.73
2023-04-22T16:22:35.404Z,13.40
2023-04-22T16:25:02.074Z,11.93
2023-04-22T16:27:28.572Z,13.02
2023-04-22T16:29:55.472Z,13.02
2023-04-22T16:32:22.018Z,10.88
2023-04-22T16:34:48.579Z,12.02
2023-04-22T16:37:15.385Z,11.50
2023-04-22T16:39:42.253Z,12.68
2023-04-22T16:42:08.847Z,12.80
2023-04-22T16:44:35.427Z,12.75
2023-04-22T16:47:02.002Z,11.95
2023-04-22T16:49:28.644Z,12.18
2023-04-22T16:51:55.248Z,11.55
2023-04-22T16:54:21.807Z,11.70
2023-04-22T16:56:48.305Z,10.48
2023-04-22T16:59:14.885Z,10.07
2023-04-22T17:01:42.139Z,10.23
2023-04-22T17:04:08.881Z,10.32
2023-04-22T17:06:36.594Z,10.75
2023-04-22T17:09:05.754Z,10.30
2023-04-22T17:11:32.373Z,10.50
2023-04-22T17:13:59.170Z,9.90
2023-04-22T17:16:25.815Z,10.30
2023-04-22T17:18:52.389Z,11.35
2023-04-22T17:21:23.461Z,11.35
2023-04-22T17:23:50.334Z,10.68
2023-04-22T17:26:16.949Z,10.60
2023-04-22T17:28:43.442Z,11.68
2023-04-22T17:31:10.050Z,10.45
2023-04-22T17:33:36.795Z,11.18
2023-04-22T17:36:03.843Z,9.60
2023-04-22T17:38:31.011Z,9.80
2023-04-22T17:40:57.507Z,10.57
2023-04-22T17:43:24.108Z,11.63
2023-04-22T17:45:50.756Z,10.43
2023-04-22T17:48:17.239Z,9.43
2023-04-22T17:50:43.728Z,10.93
2023-04-22T17:53:10.384Z,10.10
2023-04-22T17:55:36.906Z,9.65
2023-04-22T17:58:03.980Z,10.98
2023-04-22T18:00:31.133Z,8.82
2023-04-22T18:02:57.826Z,8.30
2023-04-22T18:05:24.762Z,10.45
2023-04-22T18:07:52.574Z,11.00
2023-04-22T18:10:19.132Z,9.57
2023-04-22T18:12:45.936Z,12.02
2023-04-22T18:15:12.445Z,10.55
2023-04-22T18:17:38.985Z,9.70
2023-04-22T18:20:17.664Z,9.95
2023-04-22T18:22:46.750Z,9.70
2023-04-22T18:25:13.329Z,7.85
2023-04-22T18:27:39.864Z,8.98
2023-04-22T18:30:06.786Z,9.32
2023-04-22T18:32:33.302Z,10.13
2023-04-22T18:34:59.958Z,9.20
2023-04-22T18:37:29.726Z,8.85
2023-04-22T18:39:56.931Z,10.43
2023-04-22T18:42:23.785Z,9.93
2023-04-22T18:44:50.660Z,9.18
2023-04-22T18:47:17.269Z,8.23
2023-04-22T18:49:45.474Z,9.00
2023-04-22T18:52:12.153Z,10.57
2023-04-22T18:54:39.302Z,10.15
2023-04-22T18:57:06.267Z,9.57
2023-04-22T18:59:32.791Z,9.02
2023-04-22T19:01:59.429Z,9.48
2023-04-22T19:04:26.336Z,9.85
2023-04-22T19:06:52.927Z,10.32
2023-04-22T19:09:19.584Z,9.73
2023-04-22T19:11:46.176Z,9.73
2023-04-22T19:14:14.601Z,9.85
2023-04-22T19:16:41.182Z,8.90
2023-04-22T19:19:08.137Z,9.38
2023-04-22T19:21:34.879Z,9.73
2023-04-22T19:24:01.437Z,9.52
2023-04-22T19:26:29.063Z,9.95
2023-04-22T19:28:56.830Z,8.88
2023-04-22T19:31:23.476Z,9.85
2023-04-22T19:33:49.983Z,8.30
2023-04-22T19:36:16.742Z,8.85
2023-04-22T19:38:43.609Z,9.23
2023-04-22T19:41:11.612Z,9.63
2023-04-22T19:43:38.478Z,7.82
2023-04-22T19:46:05.319Z,8.32
2023-04-22T19:48:32.141Z,7.60
2023-04-22T19:50:59.208Z,8.20
2023-04-22T19:53:25.923Z,7.85
2023-04-22T19:55:52.820Z,8.23
2023-04-22T19:58:19.743Z,8.13
2023-04-22T20:00:46.576Z,6.88
2023-04-22T20:03:14.606Z,7.05
2023-04-22T20:05:41.684Z,6.97
2023-04-22T20:08:08.991Z,7.05
2023-04-22T20:10:36.426Z,7.50
2023-04-22T20:13:04.610Z,7.60
2023-04-22T20:15:31.244Z,7.35
2023-04-22T20:17:57.905Z,7.13
2023-04-22T20:20:24.579Z,7.50
2023-04-22T20:22:52.488Z,6.97
2023-04-22T20:25:19.145Z,7.85
2023-04-22T20:27:45.935Z,7.20
2023-04-22T20:30:13.785Z,7.45
2023-04-22T20:32:40.491Z,7.32
2023-04-22T20:35:07.323Z,7.60
2023-04-22T20:37:36.091Z,8.00
2023-04-22T20:40:04.651Z,8.63
2023-04-22T20:42:32.816Z,7.93
2023-04-22T20:44:59.440Z,7.38
2023-04-22T20:47:26.069Z,8.32
2023-04-22T20:49:52.624Z,7.30
2023-04-22T20:52:19.361Z,8.40
2023-04-22T20:54:46.123Z,8.35
2023-04-22T20:57:13.065Z,7.85
2023-04-22T20:59:39.639Z,8.80
2023-04-22T21:02:07.105Z,8.45
2023-04-22T21:04:34.610Z,8.07
2023-04-22T21:07:04.408Z,8.50
2023-04-22T21:09:32.195Z,7.72
2023-04-22T21:11:58.924Z,7.05
2023-04-22T21:14:28.535Z,6.97
2023-04-22T21:17:01.017Z,7.95
2023-04-22T21:19:31.685Z,8.40
2023-04-22T21:21:59.516Z,7.85
2023-04-22T21:24:26.614Z,8.27
2023-04-22T21:26:53.723Z,8.18
2023-04-22T21:29:20.377Z,8.05
2023-04-22T21:31:57.668Z,7.22
2023-04-22T21:34:31.880Z,8.82
2023-04-22T21:36:58.377Z,8.60
2023-04-22T21:39:25.033Z,8.48
2023-04-22T21:41:51.736Z,8.25
2023-04-22T21:44:18.286Z,9.25
2023-04-22T21:46:45.538Z,8.80
2023-04-22T21:49:12.094Z,9.13
2023-04-22T21:51:38.640Z,9.00
2023-04-22T21:54:05.247Z,8.35
2023-04-22T21:56:33.600Z,8.90
2023-04-22T21:59:00.712Z,8.15
2023-04-22T22:01:27.326Z,9.50
2023-04-22T22:03:54.174Z,9.63
2023-04-22T22:06:20.889Z,9.20
2023-04-22T22:08:47.558Z,8.48
2023-04-22T22:11:27.626Z,11.25
2023-04-22T22:13:56.735Z,9.57
2023-04-22T22:16:23.425Z,10.48
2023-04-22T22:18:50.220Z,11.48
2023-04-22T22:21:16.798Z,10.25
2023-04-22T22:23:43.415Z,10.13
2023-04-22T22:26:09.938Z,10.63
2023-04-22T22:28:36.506Z,9.85
2023-04-22T22:31:03.034Z,11.00
2023-04-22T22:33:29.783Z,10.02
2023-04-22T22:35:56.690Z,11.07
2023-04-22T22:38:23.176Z,10.98
2023-04-22T22:40:49.693Z,12.38
2023-04-22T22:43:16.344Z,11.43
2023-04-22T22:45:43.012Z,11.68
2023-04-22T22:48:09.662Z,12.88
2023-04-22T22:50:36.267Z,12.38
2023-04-22T22:53:02.813Z,13.15
2023-04-22T22:55:29.342Z,12.55
2023-04-22T22:57:55.883Z,12.32
2023-04-22T23:00:22.398Z,12.35
2023-04-22T23:02:49.141Z,11.57
2023-04-22T23:05:15.845Z,11.38
2023-04-22T23:07:42.346Z,12.80
2023-04-22T23:10:09.174Z,11.70
2023-04-22T23:12:35.752Z,13.52
2023-04-22T23:15:02.469Z,10.75
2023-04-22T23:17:29.003Z,11.52
2023-04-22T23:19:55.885Z,13.73
2023-04-22T23:22:23.270Z,13.77
2023-04-22T23:24:49.897Z,12.48
2023-04-22T23:27:17.507Z,12.18
2023-04-22T23:29:44.459Z,12.27
2023-04-22T23:32:14.954Z,13.60
2023-04-22T23:34:44.038Z,12.98
2023-04-22T23:37:13.659Z,12.30
2023-04-22T23:39:42.015Z,12.65
2023-04-22T23:42:08.629Z,13.10
2023-04-22T23:44:35.146Z,14.45
2023-04-22T23:47:01.726Z,13.13
2023-04-22T23:49:28.988Z,12.98
2023-04-22T23:51:55.886Z,13.20
2023-04-22T23:54:22.536Z,14.70
2023-04-22T23:56:49.224Z,15.15
2023-04-22T23:59:15.861Z,12.65
